This is the latest recevied weather packets stored in our database for station/object KW6V-15. If no packets are shown the sender has not sent any weather packets the latest 10 day(s).
| Time | Temp. | Humidity | Pressure | Rain* | Wind** | Luminosity | Snow |
|---|---|---|---|---|---|---|---|
| 1788048043 | 20° C | 67% | 1015.4 hPa | 0 mm | - | - | - |
| 1788046244 | 20.56° C | 62% | 1015.5 hPa | 0 mm | - | - | - |
| 1788044457 | 21.11° C | 60% | 1015.6 hPa | 0 mm | - | - | - |
| 1788042651 | 21.67° C | 58% | 1015.9 hPa | 0 mm | - | - | - |
| 1788040879 | 22.22° C | 58% | 1016 hPa | 0 mm | - | - | - |
| 1788039060 | 23.33° C | 56% | 1016.1 hPa | 0 mm | - | - | - |
| 1788037266 | 22.78° C | 56% | 1016 hPa | 0 mm | - | - | - |
| 1788035456 | 22.78° C | 57% | 1015.9 hPa | 0 mm | - | - | - |
| 1788033653 | 22.22° C | 63% | 1016.1 hPa | 0 mm | - | - | - |
| 1788031846 | 21.67° C | 66% | 1016.3 hPa | 0 mm | - | - | - |
| 1788030030 | 21.11° C | 69% | 1016.5 hPa | 0 mm | - | - | - |
| 1788028236 | 20° C | 73% | 1016.4 hPa | 0 mm | - | - | - |
| 1788026431 | 19.44° C | 75% | 1016.5 hPa | 0 mm | - | - | - |
| 1788024656 | 18.33° C | 82% | 1016.4 hPa | 0 mm | - | - | - |
| 1788022840 | 16.11° C | 88% | 1016.3 hPa | 0 mm | - | - | - |
| 1788021058 | 15° C | 92% | 1016.4 hPa | 0 mm | - | - | - |
| 1788019247 | 14.44° C | 93% | 1016.4 hPa | 0 mm | - | - | - |
| 1788017445 | 12.78° C | 93% | 1016.3 hPa | 0 mm | - | - | - |
| 1788015662 | 11.11° C | 93% | 1016.3 hPa | 0 mm | - | - | - |
| 1788013888 | 10° C | 93% | 1016 hPa | 0 mm | - | - | - |
| 1788012042 | 9.44° C | 93% | 1015.9 hPa | 0 mm | - | - | - |
| 1788010267 | 9.44° C | 93% | 1015.7 hPa | 0 mm | - | - | - |
| 1788008460 | 10° C | 93% | 1015.6 hPa | 0 mm | - | - | - |
| 1788006667 | 10° C | 93% | 1015.7 hPa | 0 mm | - | - | - |
| 1788004853 | 10° C | 93% | 1015.8 hPa | 0 mm | - | - | - |
* Rain latest hour (hover to see other rain measurements)
** Current wind speed in m/s (hover to see current wind gust speed)